Harleysville, PA (19438)

1:58 AM EDT on September 24, 2014 (GMT -0400)
Harleysville/Skippack | Change Station
CLOSE
Current Station
Personal Weather Station
Location: Harleysville, PA
Elevation: 320 ft
Nearby Weather Stations

Elev 320 ft 40.24 °N, 75.40 °W | Updated 9 seconds ago

Clear
Clear
47.7 °F
Feels Like 48 °F
N
0.0
Wind Variable Wind from SW
Gusts 0.0 mph

Today
High -- | Low -- °F
--% Chance of Precip.
Yesterday
High -- | Low -- °F
Precip. -- in
6:51 AM 6:55 PM
Waning Crescent, 0% visible
Pressure 30.42 in
Visibility 10.0 miles
Clouds Clear
Windchill 48 °F
Dew Point 46 °F
Humidity 92%
Rainfall 0.00 in
Snow Depth Not available.
UV 0.0 out of 12
Pollen 2.20 out of 12
Air Quality Not available.
Flu Activity Not available.
METAR KPTW 240454Z AUTO 00000KT 10SM CLR 11/08 A3043 RMK AO2 SLP301 T01060083 402170050

More Conditions Fewer Conditions

Pressure 30.42 in
Visibility 10.0 miles
Clouds Clear
Windchill 48 °F
Dew Point 46 °F
Humidity 92%
Rainfall 0.00 in
Snow Depth Not available.
UV 0.0 out of 12
Pollen 2.20 out of 12
Air Quality Not available.
Flu Activity Not available.
METAR KPTW 240454Z AUTO 00000KT 10SM CLR 11/08 A3043 RMK AO2 SLP301 T01060083 402170050

More Conditions Fewer Conditions

10-Day Weather Forecast

Almanac

Astronomy

Sep. 24, 2014 Rise Set
Actual Time 6:51 AM EDT 6:55 PM EDT
Civil Twilight 6:23 AM EDT 7:22 PM EDT
Nautical Twilight 5:52 AM EDT 7:54 PM EDT
Astronomical Twilight 5:20 AM EDT 8:26 PM EDT
Moon 7:09 AM EDT 7:04 PM EDT
Length of Visible Light 12h 58m
Length of Day
12h 04m
Tomorrow will be 2m 38s shorter.
Waning Crescent, 0% of the Moon is Illuminated
Today
Waning Crescent
Sep 24
New
Oct 1
First Quarter
Oct 8
Full
Oct 15
Last Quarter

Today's Extremes

State Highs State Lows

Community

WunderPhotos

Upload Photos

1,755,891 photos uploaded!

WunderBlogs® & News

Nearby

Snow Depth

Station Depth Elevation
No new snow has been reported.

Earthquake Activity

City Distance Mag. Time & Date
No recent earthquake activity has been reported nearby.
Minimum magnitude displayed is 2.5.

Coastal Water Temperatures

Place Temperature
No Stations Reporting

Nearby Weather Stations